Westminster, California
Current Conditions -  °F | °C
As of 5:58 PM on Sunday 21 Dec 2014 (Local Time) from KSLI Reporting Station
Clear Clear  
Wind Chill: 15°   Ceiling: Unl
Heat Index: 15°   Visibility: 10mi
Dew Point: 14°   Wind: 0mph
Humidity: 93%   Direction: NA
Pressure: 30.05"   Gusts: NA
Location:  33.76°N, 117.98°W
Report Text: KSLI 220158Z AUTO 00000KT 10SM CLR 15/14 A3005 RMK AO2 SLP179 T01460135
Loading
Personal Weather Stations






























Interactive Weather Map New forecast layout! Learn more

10-Day Weather Forecast

Advertisements
Track Severe Weather on mobile